createdAt,value
2022-11-03T00:02:07.737Z,99343.66
2022-11-03T00:04:34.868Z,99343.41
2022-11-03T00:07:01.664Z,99346.56
2022-11-03T00:09:28.424Z,99345.28
2022-11-03T00:11:55.465Z,99349.34
2022-11-03T00:14:22.440Z,99339.44
2022-11-03T00:16:49.658Z,99348.72
2022-11-03T00:19:17.491Z,99350.19
2022-11-03T00:21:45.221Z,99336.81
2022-11-03T00:24:13.120Z,99336.59
2022-11-03T00:26:40.295Z,99342.66
2022-11-03T00:29:12.343Z,99348.56
2022-11-03T00:31:41.316Z,99346.72
2022-11-03T00:34:08.803Z,99351.91
2022-11-03T00:36:38.592Z,99347.38
2022-11-03T00:39:06.532Z,99351.63
2022-11-03T00:41:33.703Z,99354.25
2022-11-03T00:44:00.568Z,99355.28
2022-11-03T00:46:27.924Z,99355.34
2022-11-03T00:48:55.039Z,99356.94
2022-11-03T00:51:24.859Z,99360.34
2022-11-03T00:53:56.751Z,99373.72
2022-11-03T00:56:35.400Z,99372.91
2022-11-03T00:59:03.364Z,99375.59
2022-11-03T01:01:47.593Z,99368.72
2022-11-03T01:04:36.002Z,99368.91
2022-11-03T01:07:05.859Z,99368.34
2022-11-03T01:09:37.177Z,99373.63
2022-11-03T01:12:09.368Z,99373.78
2022-11-03T01:14:39.162Z,99370.50
2022-11-03T01:17:18.309Z,99378.44
2022-11-03T01:19:45.298Z,99379.59
2022-11-03T01:22:13.158Z,99380.81
2022-11-03T01:24:41.615Z,99382.03
2022-11-03T01:27:14.044Z,99383.38
2022-11-03T01:29:41.339Z,99379.34
2022-11-03T01:32:08.954Z,99386.53
2022-11-03T01:34:36.145Z,99382.53
2022-11-03T01:37:03.650Z,99384.56
2022-11-03T01:39:30.440Z,99374.16
2022-11-03T01:41:57.568Z,99381.25
2022-11-03T01:44:27.486Z,99377.81
2022-11-03T01:47:03.058Z,99377.78
2022-11-03T01:49:42.061Z,99368.09
2022-11-03T01:52:36.762Z,99371.63
2022-11-03T01:55:17.385Z,99370.75
2022-11-03T01:58:08.310Z,99379.31
2022-11-03T02:00:36.232Z,99381.03
2022-11-03T02:03:04.202Z,99373.03
2022-11-03T02:05:31.510Z,99375.59
2022-11-03T02:08:24.460Z,99380.81
2022-11-03T02:10:52.183Z,99376.38
2022-11-03T02:13:22.356Z,99381.66
2022-11-03T02:15:52.751Z,99379.91
2022-11-03T02:18:24.719Z,99376.38
2022-11-03T02:21:21.272Z,99381.03
2022-11-03T02:23:59.086Z,99374.03
2022-11-03T02:26:27.454Z,99380.28
2022-11-03T02:28:54.641Z,99377.03
2022-11-03T02:31:27.822Z,99387.88
2022-11-03T02:33:57.197Z,99388.06
2022-11-03T02:36:42.859Z,99390.09
2022-11-03T02:39:16.564Z,99388.59
2022-11-03T02:41:46.607Z,99385.31
2022-11-03T02:44:18.981Z,99376.88
2022-11-03T02:46:52.275Z,99381.44
2022-11-03T02:49:18.994Z,99383.38
2022-11-03T02:51:46.023Z,99379.13
2022-11-03T02:54:29.953Z,99390.78
2022-11-03T02:57:02.284Z,99387.50
2022-11-03T02:59:37.817Z,99386.66
2022-11-03T03:02:17.094Z,99383.28
2022-11-03T03:04:49.794Z,99390.47
2022-11-03T03:07:26.567Z,99391.38
2022-11-03T03:10:10.932Z,99391.44
2022-11-03T03:12:43.353Z,99393.13
2022-11-03T03:15:10.376Z,99396.69
2022-11-03T03:17:46.283Z,99402.66
2022-11-03T03:20:18.856Z,99399.06
2022-11-03T03:23:00.622Z,99402.50
2022-11-03T03:25:30.458Z,99404.09
2022-11-03T03:28:02.674Z,99411.97
2022-11-03T03:30:32.346Z,99411.06
2022-11-03T03:33:01.401Z,99411.13
2022-11-03T03:35:30.942Z,99406.69
2022-11-03T03:38:21.809Z,99406.69
2022-11-03T03:40:52.733Z,99411.81
2022-11-03T03:43:21.921Z,99408.13
2022-11-03T03:45:52.698Z,99416.56
2022-11-03T03:48:19.728Z,99418.97
2022-11-03T03:50:49.691Z,99421.31
2022-11-03T03:53:18.877Z,99420.28
2022-11-03T03:55:51.482Z,99416.59
2022-11-03T03:58:18.636Z,99411.22
2022-11-03T04:00:46.154Z,99418.78
2022-11-03T04:03:21.701Z,99415.00
2022-11-03T04:05:49.167Z,99420.97
2022-11-03T04:08:17.039Z,99417.31
2022-11-03T04:11:03.633Z,99419.09
2022-11-03T04:13:49.458Z,99416.47
2022-11-03T04:16:35.806Z,99417.16
2022-11-03T04:19:21.455Z,99414.47
2022-11-03T04:22:07.002Z,99418.78
2022-11-03T04:24:33.752Z,99411.88
2022-11-03T04:27:24.997Z,99417.53
2022-11-03T04:29:52.705Z,99411.59
2022-11-03T04:32:19.779Z,99410.38
2022-11-03T04:34:47.469Z,99413.44
2022-11-03T04:37:16.049Z,99415.53
2022-11-03T04:42:20.856Z,99408.44
2022-11-03T04:44:49.246Z,99410.47
2022-11-03T04:47:18.099Z,99415.06
2022-11-03T04:49:47.275Z,99417.91
2022-11-03T04:52:23.506Z,99412.03
2022-11-03T04:54:53.630Z,99417.59
2022-11-03T04:57:20.737Z,99425.78
2022-11-03T04:59:50.630Z,99426.06
2022-11-03T05:02:21.968Z,99426.41
2022-11-03T05:04:48.953Z,99422.31
2022-11-03T05:07:18.730Z,99421.81
2022-11-03T05:09:45.724Z,99423.75
2022-11-03T05:12:12.484Z,99427.56
2022-11-03T05:14:39.526Z,99427.81
2022-11-03T05:17:27.657Z,99432.44
2022-11-03T05:20:03.641Z,99432.56
2022-11-03T05:22:35.917Z,99426.56
2022-11-03T05:25:30.765Z,99434.47
2022-11-03T05:27:57.532Z,99436.13
2022-11-03T05:30:24.823Z,99436.94
2022-11-03T05:32:52.658Z,99431.56
2022-11-03T05:35:23.053Z,99432.38
2022-11-03T05:37:51.330Z,99435.69
2022-11-03T05:40:26.222Z,99438.22
2022-11-03T05:43:01.072Z,99433.69
2022-11-03T05:45:33.648Z,99444.91
2022-11-03T05:48:02.120Z,99433.06
2022-11-03T05:50:33.389Z,99444.41
2022-11-03T05:53:12.375Z,99448.47
2022-11-03T05:55:40.082Z,99446.31
2022-11-03T05:58:20.005Z,99444.94
2022-11-03T06:00:48.962Z,99456.19
2022-11-03T06:03:30.851Z,99460.94
2022-11-03T06:06:00.229Z,99460.91
2022-11-03T06:08:33.979Z,99471.47
2022-11-03T06:11:02.553Z,99464.88
2022-11-03T06:13:36.659Z,99472.66
2022-11-03T06:16:16.111Z,99471.94
2022-11-03T06:18:42.853Z,99480.69
2022-11-03T06:21:16.261Z,99484.25
2022-11-03T06:23:43.381Z,99482.00
2022-11-03T06:26:20.587Z,99481.53
2022-11-03T06:28:49.254Z,99482.00
2022-11-03T06:31:24.611Z,99486.09
2022-11-03T06:33:52.718Z,99488.25
2022-11-03T06:36:26.369Z,99487.94
2022-11-03T06:38:56.736Z,99487.50
2022-11-03T06:41:27.483Z,99486.03
2022-11-03T06:43:54.742Z,99486.59
2022-11-03T06:46:24.199Z,99496.84
2022-11-03T06:48:55.392Z,99496.47
2022-11-03T06:51:25.823Z,99496.91
2022-11-03T06:53:54.272Z,99495.22
2022-11-03T06:56:36.940Z,99492.41
2022-11-03T06:59:03.724Z,99490.88
2022-11-03T07:01:35.388Z,99493.13
2022-11-03T07:04:16.399Z,99491.94
2022-11-03T07:06:45.164Z,99492.28
2022-11-03T07:09:21.741Z,99487.06
2022-11-03T07:11:55.222Z,99486.31
2022-11-03T07:14:25.450Z,99481.88
2022-11-03T07:17:04.900Z,99480.31
2022-11-03T07:19:41.891Z,99478.06
2022-11-03T07:22:15.096Z,99478.66
2022-11-03T07:24:45.895Z,99484.44
2022-11-03T07:27:12.905Z,99474.28
2022-11-03T07:29:39.763Z,99483.84
2022-11-03T07:32:18.938Z,99470.72
2022-11-03T07:34:46.098Z,99477.56
2022-11-03T07:37:20.203Z,99465.75
2022-11-03T07:39:47.588Z,99464.94
2022-11-03T07:42:19.524Z,99465.25
2022-11-03T07:44:46.616Z,99459.38
2022-11-03T07:47:16.155Z,99463.16
2022-11-03T07:49:42.933Z,99457.31
2022-11-03T07:52:13.382Z,99461.47
2022-11-03T07:54:40.430Z,99449.22
2022-11-03T07:57:22.314Z,99448.50
2022-11-03T07:59:58.497Z,99454.41
2022-11-03T08:02:39.737Z,99444.28
2022-11-03T08:05:06.995Z,99445.13
2022-11-03T08:07:34.127Z,99447.34
2022-11-03T08:10:00.826Z,99439.00
2022-11-03T08:12:27.878Z,99445.72
2022-11-03T08:14:54.648Z,99444.03
2022-11-03T08:17:21.795Z,99436.56
2022-11-03T08:19:48.568Z,99435.75
2022-11-03T08:22:15.681Z,99440.97
2022-11-03T08:24:42.404Z,99436.22
2022-11-03T08:27:09.468Z,99432.91
2022-11-03T08:29:36.273Z,99434.59
2022-11-03T08:32:03.426Z,99436.72
2022-11-03T08:34:30.140Z,99430.09
2022-11-03T08:36:57.283Z,99426.53
2022-11-03T08:39:24.055Z,99425.56
2022-11-03T08:41:51.091Z,99418.00
2022-11-03T08:44:17.813Z,99418.06
2022-11-03T08:46:44.892Z,99413.19
2022-11-03T08:49:11.619Z,99413.69
2022-11-03T08:51:43.942Z,99414.09
2022-11-03T08:54:11.288Z,99414.09
2022-11-03T08:56:38.326Z,99413.53
2022-11-03T08:59:05.070Z,99404.94
2022-11-03T09:01:32.141Z,99411.19
2022-11-03T09:03:59.046Z,99401.94
2022-11-03T09:06:26.199Z,99405.19
2022-11-03T09:11:40.073Z,99404.47
2022-11-03T09:14:06.822Z,99407.53
2022-11-03T09:16:33.653Z,99398.72
2022-11-03T09:19:00.692Z,99393.75
2022-11-03T09:21:27.453Z,99391.31
2022-11-03T09:23:54.301Z,99396.78
2022-11-03T09:26:21.841Z,99387.78
2022-11-03T09:28:49.653Z,99390.81
2022-11-03T09:31:17.319Z,99397.47
2022-11-03T09:33:44.295Z,99390.09
2022-11-03T09:36:11.549Z,99398.53
2022-11-03T09:38:38.314Z,99385.00
2022-11-03T09:41:13.657Z,99389.81
2022-11-03T09:43:54.101Z,99377.94
2022-11-03T09:46:21.240Z,99378.44
2022-11-03T09:48:48.031Z,99386.41
2022-11-03T09:51:20.754Z,99371.09
2022-11-03T09:53:48.399Z,99377.06
2022-11-03T09:56:21.574Z,99374.44
2022-11-03T09:58:53.081Z,99372.34
2022-11-03T10:01:22.384Z,99368.09
2022-11-03T10:03:49.537Z,99362.31
2022-11-03T10:06:17.678Z,99365.78
2022-11-03T10:08:47.667Z,99366.34
2022-11-03T10:11:15.722Z,99362.09
2022-11-03T10:13:47.721Z,99357.63
2022-11-03T10:16:23.320Z,99361.19
2022-11-03T10:18:51.106Z,99364.09
2022-11-03T10:21:23.583Z,99358.06
2022-11-03T10:23:50.802Z,99358.16
2022-11-03T10:26:19.741Z,99355.09
2022-11-03T10:29:04.483Z,99348.31
2022-11-03T10:31:32.659Z,99347.59
2022-11-03T10:33:59.820Z,99340.50
2022-11-03T10:36:29.906Z,99342.34
2022-11-03T10:38:57.366Z,99335.41
2022-11-03T10:41:29.828Z,99341.47
2022-11-03T10:44:11.802Z,99325.91
2022-11-03T10:46:55.830Z,99326.38
2022-11-03T10:49:23.129Z,99320.16
2022-11-03T10:51:52.767Z,99322.47
2022-11-03T10:54:23.821Z,99317.34
2022-11-03T10:56:52.418Z,99316.63
2022-11-03T10:59:22.564Z,99316.13
2022-11-03T11:01:49.841Z,99313.06
2022-11-03T11:04:19.153Z,99316.34
2022-11-03T11:06:46.877Z,99309.13
2022-11-03T11:09:20.715Z,99308.25
2022-11-03T11:12:15.503Z,99302.41
2022-11-03T11:14:55.576Z,99302.03
2022-11-03T11:17:37.651Z,99304.41
2022-11-03T11:20:22.727Z,99297.22
2022-11-03T11:22:50.844Z,99294.81
2022-11-03T11:25:21.018Z,99290.38
2022-11-03T11:27:58.246Z,99284.53
2022-11-03T11:30:31.178Z,99286.38
2022-11-03T11:33:13.579Z,99274.06
2022-11-03T11:35:40.580Z,99272.66
2022-11-03T11:38:44.955Z,99269.41
2022-11-03T11:41:11.695Z,99264.63
2022-11-03T11:43:38.795Z,99264.25
2022-11-03T11:46:20.818Z,99257.13
2022-11-03T11:48:57.068Z,99251.38
2022-11-03T11:51:24.742Z,99244.44
2022-11-03T11:54:09.946Z,99232.72
2022-11-03T11:56:44.078Z,99236.44
2022-11-03T11:59:37.640Z,99241.69
2022-11-03T12:02:17.029Z,99242.34
2022-11-03T12:04:47.185Z,99235.09
2022-11-03T12:07:14.109Z,99224.06
2022-11-03T12:09:41.894Z,99216.59
2022-11-03T12:12:09.097Z,99214.13
2022-11-03T12:14:39.769Z,99212.59
2022-11-03T12:17:19.220Z,99211.34
2022-11-03T12:19:51.102Z,99206.03
2022-11-03T12:22:24.027Z,99194.69
2022-11-03T12:24:57.722Z,99194.44
2022-11-03T12:27:24.662Z,99192.41
2022-11-03T12:29:52.211Z,99182.34
2022-11-03T12:32:32.854Z,99189.56
2022-11-03T12:35:06.013Z,99177.44
2022-11-03T12:37:32.988Z,99181.03
2022-11-03T12:39:59.830Z,99168.34
2022-11-03T12:42:27.069Z,99173.03
2022-11-03T12:44:53.952Z,99167.63
2022-11-03T12:47:20.994Z,99163.88
2022-11-03T12:49:48.872Z,99161.66
2022-11-03T12:52:15.792Z,99157.91
2022-11-03T12:54:42.917Z,99152.31
2022-11-03T12:57:09.910Z,99162.53
2022-11-03T12:59:37.143Z,99155.72
2022-11-03T13:02:04.611Z,99147.53
2022-11-03T13:04:31.919Z,99143.75
2022-11-03T13:06:58.757Z,99138.97
2022-11-03T13:09:26.132Z,99133.34
2022-11-03T13:12:11.680Z,99133.16
2022-11-03T13:14:38.761Z,99136.06
2022-11-03T13:17:05.532Z,99129.38
2022-11-03T13:19:32.647Z,99127.63
2022-11-03T13:22:00.034Z,99134.75
2022-11-03T13:24:27.153Z,99132.38
2022-11-03T13:26:53.874Z,99135.50
2022-11-03T13:29:20.919Z,99133.72
2022-11-03T13:31:47.682Z,99131.00
2022-11-03T13:34:14.739Z,99129.59
2022-11-03T13:36:41.588Z,99128.66
2022-11-03T13:39:08.610Z,99125.34
2022-11-03T13:41:36.001Z,99115.28
2022-11-03T13:44:02.990Z,99120.03
2022-11-03T13:46:29.841Z,99118.56
2022-11-03T13:51:43.591Z,99113.53
2022-11-03T13:59:44.618Z,99105.47
2022-11-03T14:04:59.452Z,99105.13
2022-11-03T14:07:26.948Z,99109.28
2022-11-03T14:09:55.867Z,99108.28
2022-11-03T14:12:34.836Z,99111.59
2022-11-03T14:15:07.502Z,99106.97
2022-11-03T14:17:34.381Z,99111.59
2022-11-03T14:20:04.456Z,99104.13
2022-11-03T14:22:31.811Z,99096.19
2022-11-03T14:24:59.389Z,99098.69
2022-11-03T14:27:26.267Z,99095.16
2022-11-03T14:29:53.474Z,99108.22
2022-11-03T14:32:20.664Z,99095.84
2022-11-03T14:34:48.366Z,99094.38
2022-11-03T14:37:16.047Z,99091.66
2022-11-03T14:39:43.378Z,99097.72
2022-11-03T14:42:16.660Z,99090.38
2022-11-03T14:44:45.753Z,99091.09
2022-11-03T14:47:15.474Z,99094.47
2022-11-03T14:49:42.209Z,99096.94
2022-11-03T14:52:09.677Z,99086.00
2022-11-03T14:54:36.715Z,99094.66
2022-11-03T14:57:04.723Z,99086.66
2022-11-03T14:59:32.037Z,99088.06
2022-11-03T15:01:59.966Z,99084.91
2022-11-03T15:04:27.128Z,99087.19
2022-11-03T15:06:54.585Z,99087.66
2022-11-03T15:09:21.537Z,99091.63
2022-11-03T15:11:48.536Z,99093.28
2022-11-03T15:14:15.581Z,99084.75
2022-11-03T15:16:43.055Z,99092.66
2022-11-03T15:19:09.849Z,99087.06
2022-11-03T15:21:36.897Z,99075.41
2022-11-03T15:26:50.898Z,99082.56
2022-11-03T15:29:17.738Z,99080.03
2022-11-03T15:31:47.835Z,99080.84
2022-11-03T15:34:16.200Z,99082.81
2022-11-03T15:36:43.463Z,99077.38
2022-11-03T15:39:10.230Z,99073.84
2022-11-03T15:41:37.287Z,99070.28
2022-11-03T15:44:04.040Z,99065.69
2022-11-03T15:46:31.132Z,99069.91
2022-11-03T15:48:57.997Z,99070.44
2022-11-03T15:51:25.421Z,99071.81
2022-11-03T15:53:57.821Z,99072.44
2022-11-03T15:56:27.045Z,99077.34
2022-11-03T15:58:53.843Z,99071.72
2022-11-03T16:01:21.578Z,99072.13
2022-11-03T16:03:48.534Z,99066.41
2022-11-03T16:06:16.010Z,99066.88
2022-11-03T16:08:42.988Z,99068.84
2022-11-03T16:11:09.784Z,99063.09
2022-11-03T16:13:36.788Z,99062.56
2022-11-03T16:16:03.669Z,99068.09
2022-11-03T16:18:30.734Z,99065.81
2022-11-03T16:20:57.463Z,99059.31
2022-11-03T16:23:24.523Z,99056.09
2022-11-03T16:25:51.251Z,99058.25
2022-11-03T16:28:18.331Z,99058.69
2022-11-03T16:30:49.720Z,99060.69
2022-11-03T16:33:20.008Z,99058.38
2022-11-03T16:35:46.772Z,99059.47
2022-11-03T16:38:15.366Z,99061.50
2022-11-03T16:40:42.770Z,99058.22
2022-11-03T16:43:09.848Z,99058.38
2022-11-03T16:45:38.202Z,99055.94
2022-11-03T16:48:07.068Z,99064.03
2022-11-03T16:50:34.558Z,99065.94
2022-11-03T16:53:01.666Z,99070.50
2022-11-03T16:55:28.451Z,99068.88
2022-11-03T16:57:55.587Z,99063.84
2022-11-03T17:00:24.157Z,99066.69
2022-11-03T17:02:51.658Z,99066.81
2022-11-03T17:05:20.887Z,99075.69
2022-11-03T17:07:53.766Z,99069.72
2022-11-03T17:10:21.723Z,99069.97
2022-11-03T17:12:49.515Z,99071.81
2022-11-03T17:15:17.397Z,99064.13
2022-11-03T17:17:44.720Z,99070.34
2022-11-03T17:20:12.341Z,99078.25
2022-11-03T17:22:39.678Z,99076.69
2022-11-03T17:25:09.545Z,99069.00
2022-11-03T17:27:54.137Z,99069.13
2022-11-03T17:30:22.119Z,99075.38
2022-11-03T17:32:53.256Z,99072.81
2022-11-03T17:35:25.792Z,99066.91
2022-11-03T17:37:53.284Z,99069.56
2022-11-03T17:40:22.996Z,99066.16
2022-11-03T17:42:50.722Z,99058.44
2022-11-03T17:45:20.187Z,99067.25
2022-11-03T17:47:49.681Z,99066.41
2022-11-03T17:50:17.487Z,99059.44
2022-11-03T17:52:46.578Z,99054.31
2022-11-03T17:55:25.966Z,99056.16
2022-11-03T17:57:54.736Z,99049.25
2022-11-03T18:00:22.394Z,99051.91
2022-11-03T18:02:50.721Z,99047.69
2022-11-03T18:05:30.368Z,99046.88
2022-11-03T18:07:59.470Z,99033.88
2022-11-03T18:10:30.510Z,99037.38
2022-11-03T18:13:17.228Z,99035.69
2022-11-03T18:15:52.714Z,99029.69
2022-11-03T18:18:22.292Z,99022.81
2022-11-03T18:20:53.404Z,99022.94
2022-11-03T18:23:26.736Z,99019.53
2022-11-03T18:25:53.832Z,99007.44
2022-11-03T18:28:21.268Z,99007.53
2022-11-03T18:30:51.284Z,99005.84
2022-11-03T18:33:32.951Z,99004.16
2022-11-03T18:36:02.851Z,98998.03
2022-11-03T18:38:30.365Z,98996.34
2022-11-03T18:40:57.181Z,98991.16
2022-11-03T18:43:25.518Z,98979.94
2022-11-03T18:45:52.979Z,98973.84
2022-11-03T18:48:20.281Z,98969.50
2022-11-03T18:50:49.909Z,98968.75
2022-11-03T18:53:18.663Z,98967.09
2022-11-03T18:55:45.594Z,98963.72
2022-11-03T18:58:23.672Z,98965.44
2022-11-03T19:00:53.716Z,98967.25
2022-11-03T19:03:23.224Z,98962.06
2022-11-03T19:05:50.842Z,98959.63
2022-11-03T19:08:27.149Z,98952.75
2022-11-03T19:10:55.742Z,98949.38
2022-11-03T19:13:29.842Z,98949.47
2022-11-03T19:15:58.589Z,98934.75
2022-11-03T19:18:27.479Z,98930.53
2022-11-03T19:20:54.365Z,98927.19
2022-11-03T19:23:21.409Z,98926.38
2022-11-03T19:25:49.972Z,98916.00
2022-11-03T19:28:20.630Z,98921.25
2022-11-03T19:30:48.028Z,98923.94
2022-11-03T19:33:21.258Z,98908.38
2022-11-03T19:35:48.933Z,98918.75
2022-11-03T19:38:18.033Z,98901.38
2022-11-03T19:41:04.941Z,98899.69
2022-11-03T19:43:34.806Z,98895.44
2022-11-03T19:46:02.526Z,98890.28
2022-11-03T19:48:33.298Z,98890.28
2022-11-03T19:51:00.233Z,98890.31
2022-11-03T19:53:29.805Z,98896.38
2022-11-03T19:55:57.159Z,98890.31
2022-11-03T19:58:26.522Z,98879.97
2022-11-03T20:00:54.171Z,98886.03
2022-11-03T20:03:22.361Z,98878.31
2022-11-03T20:05:53.571Z,98880.13
2022-11-03T20:08:23.446Z,98881.09
2022-11-03T20:10:50.478Z,98880.31
2022-11-03T20:13:23.381Z,98888.13
2022-11-03T20:15:57.258Z,98881.22
2022-11-03T20:18:27.600Z,98877.78
2022-11-03T20:20:54.379Z,98887.38
2022-11-03T20:23:29.785Z,98886.53
2022-11-03T20:25:56.913Z,98883.09
2022-11-03T20:28:27.641Z,98870.97
2022-11-03T20:30:55.762Z,98874.44
2022-11-03T20:33:24.463Z,98869.31
2022-11-03T20:35:53.395Z,98865.94
2022-11-03T20:38:21.303Z,98856.50
2022-11-03T20:40:51.399Z,98846.19
2022-11-03T20:43:28.293Z,98846.31
2022-11-03T20:45:55.731Z,98842.88
2022-11-03T20:48:23.642Z,98836.78
2022-11-03T20:50:51.498Z,98830.81
2022-11-03T20:53:21.325Z,98826.53
2022-11-03T20:55:48.887Z,98826.59
2022-11-03T20:58:17.923Z,98825.75
2022-11-03T21:00:47.479Z,98822.31
2022-11-03T21:03:44.960Z,98818.94
2022-11-03T21:06:08.817Z,98813.81
2022-11-03T21:08:35.558Z,98810.44
2022-11-03T21:11:23.310Z,98812.25
2022-11-03T21:14:22.053Z,98806.34
2022-11-03T21:17:07.850Z,98808.09
2022-11-03T21:19:53.773Z,98806.38
2022-11-03T21:22:51.424Z,98808.19
2022-11-03T21:25:17.726Z,98806.50
2022-11-03T21:27:45.287Z,98798.75
2022-11-03T21:30:14.173Z,98804.00
2022-11-03T21:32:41.308Z,98810.09
2022-11-03T21:35:13.463Z,98794.56
2022-11-03T21:37:40.375Z,98789.41
2022-11-03T21:40:07.357Z,98786.81
2022-11-03T21:42:53.001Z,98788.63
2022-11-03T21:45:20.375Z,98780.84
2022-11-03T21:48:12.906Z,98775.69
2022-11-03T21:50:40.052Z,98782.63
2022-11-03T21:53:07.409Z,98787.00
2022-11-03T21:55:34.528Z,98786.09
2022-11-03T21:58:01.834Z,98774.84
2022-11-03T22:00:28.901Z,98767.06
2022-11-03T22:02:55.978Z,98771.41
2022-11-03T22:05:22.741Z,98761.06
2022-11-03T22:07:49.649Z,98757.66
2022-11-03T22:10:16.264Z,98754.22
2022-11-03T22:12:43.162Z,98754.25
2022-11-03T22:15:28.677Z,98747.34
2022-11-03T22:18:02.424Z,98750.81
2022-11-03T22:20:47.766Z,98745.59
2022-11-03T22:23:34.230Z,98737.00
2022-11-03T22:26:19.887Z,98733.59
2022-11-03T22:29:06.781Z,98735.38
2022-11-03T22:31:42.484Z,98721.56
2022-11-03T22:34:28.118Z,98730.25
2022-11-03T22:36:54.772Z,98721.59
2022-11-03T22:39:40.219Z,98712.91
2022-11-03T22:42:25.495Z,98706.03
2022-11-03T22:45:10.873Z,98703.44
2022-11-03T22:47:37.523Z,98704.34
2022-11-03T22:50:04.603Z,98700.03
2022-11-03T22:52:31.246Z,98702.66
2022-11-03T22:54:58.595Z,98688.00
2022-11-03T22:57:25.203Z,98692.41
2022-11-03T22:59:52.132Z,98688.13
2022-11-03T23:02:18.863Z,98682.94
2022-11-03T23:04:46.132Z,98685.56
2022-11-03T23:07:12.768Z,98688.22
2022-11-03T23:09:39.706Z,98683.91
2022-11-03T23:12:06.459Z,98687.44
2022-11-03T23:14:53.036Z,98682.28
2022-11-03T23:17:19.955Z,98684.03
2022-11-03T23:20:05.272Z,98672.88
2022-11-03T23:22:32.223Z,98679.84
2022-11-03T23:25:01.783Z,98676.41
2022-11-03T23:27:28.793Z,98677.38
2022-11-03T23:29:55.464Z,98679.22
2022-11-03T23:32:22.415Z,98671.53
2022-11-03T23:34:49.095Z,98669.03
2022-11-03T23:37:16.013Z,98669.03
2022-11-03T23:39:42.637Z,98663.91
2022-11-03T23:42:09.270Z,98660.44
2022-11-03T23:44:54.775Z,98657.88
2022-11-03T23:47:40.068Z,98657.00
2022-11-03T23:50:07.168Z,98655.28
2022-11-03T23:52:33.865Z,98665.66
2022-11-03T23:55:00.823Z,98659.56
2022-11-03T23:57:46.160Z,98658.66
